sensor_id;sensor_type;location;lat;lon;timestamp;temperature;humidity
21570;DHT22;57598;50.888;4.746;2022-11-09T00:01:42;14.80;99.90
21570;DHT22;57598;50.888;4.746;2022-11-09T00:04:10;14.80;99.90
21570;DHT22;57598;50.888;4.746;2022-11-09T00:06:37;14.80;99.90
21570;DHT22;57598;50.888;4.746;2022-11-09T00:09:06;14.90;99.90
21570;DHT22;57598;50.888;4.746;2022-11-09T00:11:35;14.90;99.90
21570;DHT22;57598;50.888;4.746;2022-11-09T00:14:02;14.90;99.90
21570;DHT22;57598;50.888;4.746;2022-11-09T00:16:29;14.90;99.90
21570;DHT22;57598;50.888;4.746;2022-11-09T00:18:57;14.90;99.90
21570;DHT22;57598;50.888;4.746;2022-11-09T00:21:24;14.80;99.90
21570;DHT22;57598;50.888;4.746;2022-11-09T00:23:51;14.80;99.90
21570;DHT22;57598;50.888;4.746;2022-11-09T00:26:20;14.80;99.90
21570;DHT22;57598;50.888;4.746;2022-11-09T00:28:48;14.80;99.90
21570;DHT22;57598;50.888;4.746;2022-11-09T00:31:16;14.80;99.90
21570;DHT22;57598;50.888;4.746;2022-11-09T00:33:46;14.80;99.90
21570;DHT22;57598;50.888;4.746;2022-11-09T00:36:13;14.70;99.90
21570;DHT22;57598;50.888;4.746;2022-11-09T00:38:40;14.80;99.90
21570;DHT22;57598;50.888;4.746;2022-11-09T00:41:09;14.80;99.90
21570;DHT22;57598;50.888;4.746;2022-11-09T00:43:38;14.80;99.90
21570;DHT22;57598;50.888;4.746;2022-11-09T00:46:05;14.80;99.90
21570;DHT22;57598;50.888;4.746;2022-11-09T00:48:33;14.80;99.90
21570;DHT22;57598;50.888;4.746;2022-11-09T00:51:00;14.70;99.90
21570;DHT22;57598;50.888;4.746;2022-11-09T00:53:29;14.70;99.90
21570;DHT22;57598;50.888;4.746;2022-11-09T00:55:58;14.70;99.90
21570;DHT22;57598;50.888;4.746;2022-11-09T00:58:27;14.60;99.90
21570;DHT22;57598;50.888;4.746;2022-11-09T01:00:56;14.60;99.90
21570;DHT22;57598;50.888;4.746;2022-11-09T01:03:24;14.50;99.90
21570;DHT22;57598;50.888;4.746;2022-11-09T01:05:52;14.50;99.90
21570;DHT22;57598;50.888;4.746;2022-11-09T01:08:19;14.50;99.90
21570;DHT22;57598;50.888;4.746;2022-11-09T01:10:47;14.50;99.90
21570;DHT22;57598;50.888;4.746;2022-11-09T01:13:16;14.40;99.90
21570;DHT22;57598;50.888;4.746;2022-11-09T01:15:44;14.40;99.90
21570;DHT22;57598;50.888;4.746;2022-11-09T01:18:13;14.40;99.90
21570;DHT22;57598;50.888;4.746;2022-11-09T01:20:41;14.30;99.90
21570;DHT22;57598;50.888;4.746;2022-11-09T01:23:10;14.30;99.90
21570;DHT22;57598;50.888;4.746;2022-11-09T01:25:37;14.30;99.90
21570;DHT22;57598;50.888;4.746;2022-11-09T01:28:06;14.30;99.90
21570;DHT22;57598;50.888;4.746;2022-11-09T01:30:34;14.30;99.90
21570;DHT22;57598;50.888;4.746;2022-11-09T01:33:02;14.20;99.90
21570;DHT22;57598;50.888;4.746;2022-11-09T01:35:32;14.20;99.90
21570;DHT22;57598;50.888;4.746;2022-11-09T01:38:00;14.20;99.90
21570;DHT22;57598;50.888;4.746;2022-11-09T01:40:28;14.10;99.90
21570;DHT22;57598;50.888;4.746;2022-11-09T01:42:55;14.20;99.90
21570;DHT22;57598;50.888;4.746;2022-11-09T01:45:25;14.20;99.90
21570;DHT22;57598;50.888;4.746;2022-11-09T01:47:59;14.20;99.90
21570;DHT22;57598;50.888;4.746;2022-11-09T01:50:33;14.20;99.90
21570;DHT22;57598;50.888;4.746;2022-11-09T01:53:03;14.20;99.90
21570;DHT22;57598;50.888;4.746;2022-11-09T01:55:31;14.20;99.90
21570;DHT22;57598;50.888;4.746;2022-11-09T01:58:02;14.20;99.90
21570;DHT22;57598;50.888;4.746;2022-11-09T02:00:31;14.20;99.90
21570;DHT22;57598;50.888;4.746;2022-11-09T02:03:04;14.20;99.90
21570;DHT22;57598;50.888;4.746;2022-11-09T02:05:35;14.20;99.90
21570;DHT22;57598;50.888;4.746;2022-11-09T02:08:04;14.30;99.90
21570;DHT22;57598;50.888;4.746;2022-11-09T02:10:36;14.30;99.90
21570;DHT22;57598;50.888;4.746;2022-11-09T02:13:05;14.30;99.90
21570;DHT22;57598;50.888;4.746;2022-11-09T02:15:34;14.20;99.90
21570;DHT22;57598;50.888;4.746;2022-11-09T02:18:02;14.20;99.90
21570;DHT22;57598;50.888;4.746;2022-11-09T02:20:43;14.30;99.90
21570;DHT22;57598;50.888;4.746;2022-11-09T02:23:10;14.30;99.90
21570;DHT22;57598;50.888;4.746;2022-11-09T02:25:37;14.30;99.90
21570;DHT22;57598;50.888;4.746;2022-11-09T02:28:05;14.20;99.90
21570;DHT22;57598;50.888;4.746;2022-11-09T02:30:33;14.20;99.90
21570;DHT22;57598;50.888;4.746;2022-11-09T02:33:01;14.20;99.90
21570;DHT22;57598;50.888;4.746;2022-11-09T02:35:28;14.20;99.90
21570;DHT22;57598;50.888;4.746;2022-11-09T02:37:56;14.20;99.90
21570;DHT22;57598;50.888;4.746;2022-11-09T02:40:27;14.20;99.90
21570;DHT22;57598;50.888;4.746;2022-11-09T02:42:57;14.00;99.90
21570;DHT22;57598;50.888;4.746;2022-11-09T02:45:25;13.80;99.90
21570;DHT22;57598;50.888;4.746;2022-11-09T02:47:52;13.70;99.90
21570;DHT22;57598;50.888;4.746;2022-11-09T02:50:19;13.60;99.90
21570;DHT22;57598;50.888;4.746;2022-11-09T02:52:46;13.50;99.90
21570;DHT22;57598;50.888;4.746;2022-11-09T02:55:15;13.50;99.90
21570;DHT22;57598;50.888;4.746;2022-11-09T02:57:42;13.40;99.90
21570;DHT22;57598;50.888;4.746;2022-11-09T03:00:10;13.40;99.90
21570;DHT22;57598;50.888;4.746;2022-11-09T03:02:38;13.40;99.90
21570;DHT22;57598;50.888;4.746;2022-11-09T03:05:05;13.40;99.90
21570;DHT22;57598;50.888;4.746;2022-11-09T03:07:32;13.40;99.90
21570;DHT22;57598;50.888;4.746;2022-11-09T03:09:59;13.40;99.90
21570;DHT22;57598;50.888;4.746;2022-11-09T03:12:28;13.40;99.90
21570;DHT22;57598;50.888;4.746;2022-11-09T03:14:55;13.40;99.90
21570;DHT22;57598;50.888;4.746;2022-11-09T03:17:22;13.40;99.90
21570;DHT22;57598;50.888;4.746;2022-11-09T03:19:49;13.40;99.90
21570;DHT22;57598;50.888;4.746;2022-11-09T03:22:16;13.40;99.90
21570;DHT22;57598;50.888;4.746;2022-11-09T03:24:43;13.30;99.90
21570;DHT22;57598;50.888;4.746;2022-11-09T03:27:10;13.30;99.90
21570;DHT22;57598;50.888;4.746;2022-11-09T03:29:38;13.30;99.90
21570;DHT22;57598;50.888;4.746;2022-11-09T03:32:06;13.40;99.90
21570;DHT22;57598;50.888;4.746;2022-11-09T03:34:33;13.40;99.90
21570;DHT22;57598;50.888;4.746;2022-11-09T03:37:00;13.40;99.90
21570;DHT22;57598;50.888;4.746;2022-11-09T03:39:27;13.40;99.90
21570;DHT22;57598;50.888;4.746;2022-11-09T03:41:54;13.40;99.90
21570;DHT22;57598;50.888;4.746;2022-11-09T03:44:21;13.40;99.90
21570;DHT22;57598;50.888;4.746;2022-11-09T03:46:49;13.30;99.90
21570;DHT22;57598;50.888;4.746;2022-11-09T03:49:16;13.40;99.90
21570;DHT22;57598;50.888;4.746;2022-11-09T03:51:43;13.40;99.90
21570;DHT22;57598;50.888;4.746;2022-11-09T03:54:10;13.40;99.90
21570;DHT22;57598;50.888;4.746;2022-11-09T03:56:37;13.40;99.90
21570;DHT22;57598;50.888;4.746;2022-11-09T03:59:04;13.40;99.90
21570;DHT22;57598;50.888;4.746;2022-11-09T04:01:32;13.40;99.90
21570;DHT22;57598;50.888;4.746;2022-11-09T04:04:01;13.50;99.90
21570;DHT22;57598;50.888;4.746;2022-11-09T04:06:28;13.50;99.90
21570;DHT22;57598;50.888;4.746;2022-11-09T04:08:55;13.50;99.90
21570;DHT22;57598;50.888;4.746;2022-11-09T04:11:22;13.50;99.90
21570;DHT22;57598;50.888;4.746;2022-11-09T04:13:49;13.50;99.90
21570;DHT22;57598;50.888;4.746;2022-11-09T04:16:16;13.50;99.90
21570;DHT22;57598;50.888;4.746;2022-11-09T04:18:43;13.50;99.90
21570;DHT22;57598;50.888;4.746;2022-11-09T04:21:11;13.50;99.90
21570;DHT22;57598;50.888;4.746;2022-11-09T04:23:38;13.40;99.90
21570;DHT22;57598;50.888;4.746;2022-11-09T04:26:05;13.40;99.90
21570;DHT22;57598;50.888;4.746;2022-11-09T04:28:32;13.30;99.90
21570;DHT22;57598;50.888;4.746;2022-11-09T04:31:00;13.30;99.90
21570;DHT22;57598;50.888;4.746;2022-11-09T04:33:27;13.20;99.90
21570;DHT22;57598;50.888;4.746;2022-11-09T04:35:54;13.30;99.90
21570;DHT22;57598;50.888;4.746;2022-11-09T04:38:22;13.30;99.90
21570;DHT22;57598;50.888;4.746;2022-11-09T04:40:49;13.20;99.90
21570;DHT22;57598;50.888;4.746;2022-11-09T04:43:16;13.20;99.90
21570;DHT22;57598;50.888;4.746;2022-11-09T04:45:43;13.20;99.90
21570;DHT22;57598;50.888;4.746;2022-11-09T04:48:11;13.20;99.90
21570;DHT22;57598;50.888;4.746;2022-11-09T04:50:38;13.10;99.90
21570;DHT22;57598;50.888;4.746;2022-11-09T04:53:07;13.10;99.90
21570;DHT22;57598;50.888;4.746;2022-11-09T04:55:36;13.10;99.90
21570;DHT22;57598;50.888;4.746;2022-11-09T04:58:03;13.00;99.90
21570;DHT22;57598;50.888;4.746;2022-11-09T05:00:31;13.00;99.90
21570;DHT22;57598;50.888;4.746;2022-11-09T05:02:59;13.00;99.90
21570;DHT22;57598;50.888;4.746;2022-11-09T05:05:26;13.10;99.90
21570;DHT22;57598;50.888;4.746;2022-11-09T05:07:54;13.00;99.90
21570;DHT22;57598;50.888;4.746;2022-11-09T05:10:21;13.00;99.90
21570;DHT22;57598;50.888;4.746;2022-11-09T05:12:49;13.00;99.90
21570;DHT22;57598;50.888;4.746;2022-11-09T05:15:16;13.00;99.90
21570;DHT22;57598;50.888;4.746;2022-11-09T05:17:43;13.00;99.90
21570;DHT22;57598;50.888;4.746;2022-11-09T05:20:10;13.00;99.90
21570;DHT22;57598;50.888;4.746;2022-11-09T05:22:40;13.00;99.90
21570;DHT22;57598;50.888;4.746;2022-11-09T05:25:25;12.90;99.90
21570;DHT22;57598;50.888;4.746;2022-11-09T05:27:53;12.90;99.90
21570;DHT22;57598;50.888;4.746;2022-11-09T05:30:20;12.90;99.90
21570;DHT22;57598;50.888;4.746;2022-11-09T05:32:47;12.80;99.90
21570;DHT22;57598;50.888;4.746;2022-11-09T05:35:14;12.90;99.90
21570;DHT22;57598;50.888;4.746;2022-11-09T05:37:41;12.90;99.90
21570;DHT22;57598;50.888;4.746;2022-11-09T05:40:11;12.90;99.90
21570;DHT22;57598;50.888;4.746;2022-11-09T05:42:39;12.80;99.90
21570;DHT22;57598;50.888;4.746;2022-11-09T05:45:09;12.90;99.90
21570;DHT22;57598;50.888;4.746;2022-11-09T05:47:37;12.80;99.90
21570;DHT22;57598;50.888;4.746;2022-11-09T05:50:07;12.70;99.90
21570;DHT22;57598;50.888;4.746;2022-11-09T05:52:34;12.70;99.90
21570;DHT22;57598;50.888;4.746;2022-11-09T05:55:01;12.70;99.90
21570;DHT22;57598;50.888;4.746;2022-11-09T05:57:28;12.70;99.90
21570;DHT22;57598;50.888;4.746;2022-11-09T05:59:55;12.70;99.90
21570;DHT22;57598;50.888;4.746;2022-11-09T06:02:24;12.70;99.90
21570;DHT22;57598;50.888;4.746;2022-11-09T06:04:51;12.70;99.90
21570;DHT22;57598;50.888;4.746;2022-11-09T06:07:18;12.70;99.90
21570;DHT22;57598;50.888;4.746;2022-11-09T06:09:45;12.70;99.90
21570;DHT22;57598;50.888;4.746;2022-11-09T06:12:12;12.60;99.90
21570;DHT22;57598;50.888;4.746;2022-11-09T06:14:39;12.60;99.90
21570;DHT22;57598;50.888;4.746;2022-11-09T06:17:06;12.50;99.90
21570;DHT22;57598;50.888;4.746;2022-11-09T06:19:34;12.50;99.90
21570;DHT22;57598;50.888;4.746;2022-11-09T06:22:01;12.50;99.90
21570;DHT22;57598;50.888;4.746;2022-11-09T06:24:28;12.50;99.90
21570;DHT22;57598;50.888;4.746;2022-11-09T06:26:56;12.50;99.90
21570;DHT22;57598;50.888;4.746;2022-11-09T06:29:23;12.50;99.90
21570;DHT22;57598;50.888;4.746;2022-11-09T06:31:50;12.50;99.90
21570;DHT22;57598;50.888;4.746;2022-11-09T06:34:17;12.50;99.90
21570;DHT22;57598;50.888;4.746;2022-11-09T06:36:45;12.50;99.90
21570;DHT22;57598;50.888;4.746;2022-11-09T06:39:12;12.50;99.90
21570;DHT22;57598;50.888;4.746;2022-11-09T06:41:39;12.40;99.90
21570;DHT22;57598;50.888;4.746;2022-11-09T06:44:06;12.50;99.90
21570;DHT22;57598;50.888;4.746;2022-11-09T06:46:33;12.50;99.90
21570;DHT22;57598;50.888;4.746;2022-11-09T06:49:00;12.40;99.90
21570;DHT22;57598;50.888;4.746;2022-11-09T06:51:27;12.40;99.90
21570;DHT22;57598;50.888;4.746;2022-11-09T06:53:56;12.40;99.90
21570;DHT22;57598;50.888;4.746;2022-11-09T06:56:23;12.40;99.90
21570;DHT22;57598;50.888;4.746;2022-11-09T06:58:50;12.40;99.90
21570;DHT22;57598;50.888;4.746;2022-11-09T07:01:18;12.40;99.90
21570;DHT22;57598;50.888;4.746;2022-11-09T07:03:45;12.40;99.90
21570;DHT22;57598;50.888;4.746;2022-11-09T07:06:12;12.40;99.90
21570;DHT22;57598;50.888;4.746;2022-11-09T07:08:39;12.40;99.90
21570;DHT22;57598;50.888;4.746;2022-11-09T07:11:10;12.50;99.90
21570;DHT22;57598;50.888;4.746;2022-11-09T07:13:37;12.50;99.90
21570;DHT22;57598;50.888;4.746;2022-11-09T07:16:05;12.50;99.90
21570;DHT22;57598;50.888;4.746;2022-11-09T07:18:33;12.50;99.90
21570;DHT22;57598;50.888;4.746;2022-11-09T07:21:00;12.50;99.90
21570;DHT22;57598;50.888;4.746;2022-11-09T07:23:29;12.60;99.90
21570;DHT22;57598;50.888;4.746;2022-11-09T07:25:57;12.60;99.90
21570;DHT22;57598;50.888;4.746;2022-11-09T07:28:26;12.70;99.90
21570;DHT22;57598;50.888;4.746;2022-11-09T07:30:53;12.70;99.90
21570;DHT22;57598;50.888;4.746;2022-11-09T07:33:20;12.70;99.90
21570;DHT22;57598;50.888;4.746;2022-11-09T07:35:48;12.70;99.90
21570;DHT22;57598;50.888;4.746;2022-11-09T07:38:15;12.70;99.90
21570;DHT22;57598;50.888;4.746;2022-11-09T07:40:44;12.70;99.90
21570;DHT22;57598;50.888;4.746;2022-11-09T07:43:12;12.80;99.90
21570;DHT22;57598;50.888;4.746;2022-11-09T07:45:40;12.80;99.90
21570;DHT22;57598;50.888;4.746;2022-11-09T07:48:09;12.80;99.90
21570;DHT22;57598;50.888;4.746;2022-11-09T07:50:38;12.80;99.90
21570;DHT22;57598;50.888;4.746;2022-11-09T07:53:06;12.90;99.90
21570;DHT22;57598;50.888;4.746;2022-11-09T07:55:33;12.90;99.90
21570;DHT22;57598;50.888;4.746;2022-11-09T07:58:03;12.90;99.90
21570;DHT22;57598;50.888;4.746;2022-11-09T08:00:32;12.90;99.90
21570;DHT22;57598;50.888;4.746;2022-11-09T08:03:01;12.90;99.90
21570;DHT22;57598;50.888;4.746;2022-11-09T08:05:28;13.00;99.90
21570;DHT22;57598;50.888;4.746;2022-11-09T08:07:56;13.10;99.90
21570;DHT22;57598;50.888;4.746;2022-11-09T08:10:24;13.30;99.90
21570;DHT22;57598;50.888;4.746;2022-11-09T08:12:52;13.40;99.90
21570;DHT22;57598;50.888;4.746;2022-11-09T08:15:20;13.50;99.90
21570;DHT22;57598;50.888;4.746;2022-11-09T08:17:47;13.60;99.90
21570;DHT22;57598;50.888;4.746;2022-11-09T08:22:44;14.00;99.90
21570;DHT22;57598;50.888;4.746;2022-11-09T08:25:12;14.00;99.90
21570;DHT22;57598;50.888;4.746;2022-11-09T08:27:40;14.10;99.90
21570;DHT22;57598;50.888;4.746;2022-11-09T08:30:11;14.10;99.90
21570;DHT22;57598;50.888;4.746;2022-11-09T08:32:39;14.40;99.90
21570;DHT22;57598;50.888;4.746;2022-11-09T08:35:07;14.80;99.90
21570;DHT22;57598;50.888;4.746;2022-11-09T08:37:35;15.30;99.90
21570;DHT22;57598;50.888;4.746;2022-11-09T08:40:05;15.60;99.90
21570;DHT22;57598;50.888;4.746;2022-11-09T08:42:32;15.80;99.90
21570;DHT22;57598;50.888;4.746;2022-11-09T08:44:59;16.10;99.90
21570;DHT22;57598;50.888;4.746;2022-11-09T08:47:27;16.20;99.90
21570;DHT22;57598;50.888;4.746;2022-11-09T08:49:54;16.60;99.90
21570;DHT22;57598;50.888;4.746;2022-11-09T08:52:21;16.60;99.90
21570;DHT22;57598;50.888;4.746;2022-11-09T08:54:48;16.80;99.90
21570;DHT22;57598;50.888;4.746;2022-11-09T08:57:18;16.90;99.90
21570;DHT22;57598;50.888;4.746;2022-11-09T08:59:45;17.30;99.90
21570;DHT22;57598;50.888;4.746;2022-11-09T09:02:15;17.50;99.90
21570;DHT22;57598;50.888;4.746;2022-11-09T09:04:42;17.40;99.90
21570;DHT22;57598;50.888;4.746;2022-11-09T09:07:09;17.40;99.90
21570;DHT22;57598;50.888;4.746;2022-11-09T09:09:36;17.20;99.90
21570;DHT22;57598;50.888;4.746;2022-11-09T09:12:04;17.40;99.90
21570;DHT22;57598;50.888;4.746;2022-11-09T09:14:33;17.80;99.90
21570;DHT22;57598;50.888;4.746;2022-11-09T09:17:00;17.70;99.90
21570;DHT22;57598;50.888;4.746;2022-11-09T09:19:27;17.50;99.90
21570;DHT22;57598;50.888;4.746;2022-11-09T09:21:54;17.10;99.90
21570;DHT22;57598;50.888;4.746;2022-11-09T09:24:21;17.20;99.90
21570;DHT22;57598;50.888;4.746;2022-11-09T09:26:48;17.00;99.90
21570;DHT22;57598;50.888;4.746;2022-11-09T09:29:15;17.10;99.90
21570;DHT22;57598;50.888;4.746;2022-11-09T09:31:44;17.40;99.90
21570;DHT22;57598;50.888;4.746;2022-11-09T09:34:11;17.60;99.90
21570;DHT22;57598;50.888;4.746;2022-11-09T09:36:38;17.60;99.90
21570;DHT22;57598;50.888;4.746;2022-11-09T09:39:05;17.60;99.90
21570;DHT22;57598;50.888;4.746;2022-11-09T09:41:36;18.00;99.90
21570;DHT22;57598;50.888;4.746;2022-11-09T09:44:16;18.20;99.90
21570;DHT22;57598;50.888;4.746;2022-11-09T09:46:50;18.70;99.90
21570;DHT22;57598;50.888;4.746;2022-11-09T09:49:22;19.10;99.90
21570;DHT22;57598;50.888;4.746;2022-11-09T09:51:54;19.30;99.90
21570;DHT22;57598;50.888;4.746;2022-11-09T09:54:23;19.30;99.90
21570;DHT22;57598;50.888;4.746;2022-11-09T09:56:52;19.60;99.90
21570;DHT22;57598;50.888;4.746;2022-11-09T09:59:24;19.90;99.90
21570;DHT22;57598;50.888;4.746;2022-11-09T10:01:54;20.40;99.90
21570;DHT22;57598;50.888;4.746;2022-11-09T10:04:26;21.10;99.90
21570;DHT22;57598;50.888;4.746;2022-11-09T10:07:00;20.60;99.90
21570;DHT22;57598;50.888;4.746;2022-11-09T10:09:47;20.20;99.90
21570;DHT22;57598;50.888;4.746;2022-11-09T10:12:22;20.00;99.90
21570;DHT22;57598;50.888;4.746;2022-11-09T10:15:13;20.10;99.90
21570;DHT22;57598;50.888;4.746;2022-11-09T10:17:52;20.10;99.90
21570;DHT22;57598;50.888;4.746;2022-11-09T10:20:32;20.40;99.90
21570;DHT22;57598;50.888;4.746;2022-11-09T10:23:15;20.80;99.90
21570;DHT22;57598;50.888;4.746;2022-11-09T10:25:46;20.90;99.90
21570;DHT22;57598;50.888;4.746;2022-11-09T10:28:15;20.90;99.90
21570;DHT22;57598;50.888;4.746;2022-11-09T10:30:43;20.60;99.90
21570;DHT22;57598;50.888;4.746;2022-11-09T10:33:15;19.90;99.90
21570;DHT22;57598;50.888;4.746;2022-11-09T10:35:45;19.20;99.90
21570;DHT22;57598;50.888;4.746;2022-11-09T10:38:17;18.80;99.90
21570;DHT22;57598;50.888;4.746;2022-11-09T10:40:51;18.30;99.90
21570;DHT22;57598;50.888;4.746;2022-11-09T10:43:19;18.50;99.90
21570;DHT22;57598;50.888;4.746;2022-11-09T10:45:57;18.40;99.90
21570;DHT22;57598;50.888;4.746;2022-11-09T10:48:31;18.60;99.90
21570;DHT22;57598;50.888;4.746;2022-11-09T10:50:58;18.90;99.90
21570;DHT22;57598;50.888;4.746;2022-11-09T10:53:26;18.70;99.90
21570;DHT22;57598;50.888;4.746;2022-11-09T10:55:55;18.90;99.90
21570;DHT22;57598;50.888;4.746;2022-11-09T10:58:29;19.20;99.90
21570;DHT22;57598;50.888;4.746;2022-11-09T11:01:02;19.60;99.90
21570;DHT22;57598;50.888;4.746;2022-11-09T11:03:33;20.20;99.90
21570;DHT22;57598;50.888;4.746;2022-11-09T11:06:02;20.30;99.90
21570;DHT22;57598;50.888;4.746;2022-11-09T11:08:38;20.70;99.90
21570;DHT22;57598;50.888;4.746;2022-11-09T11:13:49;20.60;99.80
21570;DHT22;57598;50.888;4.746;2022-11-09T11:16:26;19.60;99.90
21570;DHT22;57598;50.888;4.746;2022-11-09T11:18:55;18.80;99.90
21570;DHT22;57598;50.888;4.746;2022-11-09T11:21:23;18.30;99.90
21570;DHT22;57598;50.888;4.746;2022-11-09T11:24:11;18.10;99.90
21570;DHT22;57598;50.888;4.746;2022-11-09T11:26:44;17.70;99.90
21570;DHT22;57598;50.888;4.746;2022-11-09T11:29:31;17.60;99.90
21570;DHT22;57598;50.888;4.746;2022-11-09T11:31:59;17.20;99.90
21570;DHT22;57598;50.888;4.746;2022-11-09T11:34:27;17.20;99.90
21570;DHT22;57598;50.888;4.746;2022-11-09T11:37:03;17.20;99.90
21570;DHT22;57598;50.888;4.746;2022-11-09T11:39:41;17.10;99.90
21570;DHT22;57598;50.888;4.746;2022-11-09T11:42:32;17.00;99.90
21570;DHT22;57598;50.888;4.746;2022-11-09T11:45:14;17.00;99.90
21570;DHT22;57598;50.888;4.746;2022-11-09T11:47:50;16.90;99.90
21570;DHT22;57598;50.888;4.746;2022-11-09T11:50:29;16.80;99.90
21570;DHT22;57598;50.888;4.746;2022-11-09T11:53:14;16.40;99.90
21570;DHT22;57598;50.888;4.746;2022-11-09T11:55:54;15.70;99.90
21570;DHT22;57598;50.888;4.746;2022-11-09T11:58:39;15.40;99.90
21570;DHT22;57598;50.888;4.746;2022-11-09T12:01:18;15.20;99.90
21570;DHT22;57598;50.888;4.746;2022-11-09T12:04:12;15.20;99.90
21570;DHT22;57598;50.888;4.746;2022-11-09T12:06:53;15.40;99.90
21570;DHT22;57598;50.888;4.746;2022-11-09T12:09:36;15.50;99.90
21570;DHT22;57598;50.888;4.746;2022-11-09T12:12:12;15.60;99.90
21570;DHT22;57598;50.888;4.746;2022-11-09T12:14:50;15.70;99.90
21570;DHT22;57598;50.888;4.746;2022-11-09T12:17:26;15.80;99.90
21570;DHT22;57598;50.888;4.746;2022-11-09T12:20:17;15.80;99.90
21570;DHT22;57598;50.888;4.746;2022-11-09T12:22:58;16.00;99.90
21570;DHT22;57598;50.888;4.746;2022-11-09T12:25:30;16.00;99.90
21570;DHT22;57598;50.888;4.746;2022-11-09T12:28:09;16.10;99.90
21570;DHT22;57598;50.888;4.746;2022-11-09T12:30:57;16.10;99.90
21570;DHT22;57598;50.888;4.746;2022-11-09T12:33:38;15.80;99.90
21570;DHT22;57598;50.888;4.746;2022-11-09T12:36:12;15.60;99.90
21570;DHT22;57598;50.888;4.746;2022-11-09T12:38:50;15.60;99.90
21570;DHT22;57598;50.888;4.746;2022-11-09T12:41:21;15.70;99.90
21570;DHT22;57598;50.888;4.746;2022-11-09T12:43:51;15.80;99.90
21570;DHT22;57598;50.888;4.746;2022-11-09T12:46:23;15.90;99.90
21570;DHT22;57598;50.888;4.746;2022-11-09T12:48:53;15.90;99.90
21570;DHT22;57598;50.888;4.746;2022-11-09T12:51:21;15.80;99.90
21570;DHT22;57598;50.888;4.746;2022-11-09T12:53:50;15.70;99.90
21570;DHT22;57598;50.888;4.746;2022-11-09T12:56:21;15.60;99.90
21570;DHT22;57598;50.888;4.746;2022-11-09T12:58:49;15.40;99.90
21570;DHT22;57598;50.888;4.746;2022-11-09T13:01:43;15.20;99.90
21570;DHT22;57598;50.888;4.746;2022-11-09T13:04:16;14.90;99.90
21570;DHT22;57598;50.888;4.746;2022-11-09T13:07:16;14.70;99.90
21570;DHT22;57598;50.888;4.746;2022-11-09T13:09:52;14.50;99.90
21570;DHT22;57598;50.888;4.746;2022-11-09T13:12:29;14.50;99.90
21570;DHT22;57598;50.888;4.746;2022-11-09T13:14:57;14.60;99.90
21570;DHT22;57598;50.888;4.746;2022-11-09T13:18:03;14.50;99.90
21570;DHT22;57598;50.888;4.746;2022-11-09T13:20:44;14.50;99.90
21570;DHT22;57598;50.888;4.746;2022-11-09T13:23:38;14.40;99.90
21570;DHT22;57598;50.888;4.746;2022-11-09T13:26:21;14.60;99.90
21570;DHT22;57598;50.888;4.746;2022-11-09T13:29:07;14.70;99.90
21570;DHT22;57598;50.888;4.746;2022-11-09T13:32:00;15.20;99.90
21570;DHT22;57598;50.888;4.746;2022-11-09T13:34:41;15.80;99.90
21570;DHT22;57598;50.888;4.746;2022-11-09T13:37:44;16.70;99.90
21570;DHT22;57598;50.888;4.746;2022-11-09T13:40:37;17.90;99.90
21570;DHT22;57598;50.888;4.746;2022-11-09T13:43:18;18.50;99.90
21570;DHT22;57598;50.888;4.746;2022-11-09T13:45:46;19.00;99.90
21570;DHT22;57598;50.888;4.746;2022-11-09T13:48:40;19.60;99.90
21570;DHT22;57598;50.888;4.746;2022-11-09T13:51:09;20.00;99.90
21570;DHT22;57598;50.888;4.746;2022-11-09T13:53:55;20.20;99.90
21570;DHT22;57598;50.888;4.746;2022-11-09T13:56:30;20.10;99.90
21570;DHT22;57598;50.888;4.746;2022-11-09T13:59:06;20.10;99.90
21570;DHT22;57598;50.888;4.746;2022-11-09T14:01:44;19.60;99.90
21570;DHT22;57598;50.888;4.746;2022-11-09T14:04:20;18.50;99.90
21570;DHT22;57598;50.888;4.746;2022-11-09T14:06:48;17.90;99.90
21570;DHT22;57598;50.888;4.746;2022-11-09T14:09:18;17.30;99.90
21570;DHT22;57598;50.888;4.746;2022-11-09T14:12:06;17.10;99.90
21570;DHT22;57598;50.888;4.746;2022-11-09T14:14:50;16.90;99.90
21570;DHT22;57598;50.888;4.746;2022-11-09T14:17:26;16.60;99.90
21570;DHT22;57598;50.888;4.746;2022-11-09T14:20:04;16.50;99.90
21570;DHT22;57598;50.888;4.746;2022-11-09T14:22:34;16.40;99.90
21570;DHT22;57598;50.888;4.746;2022-11-09T14:25:04;16.30;99.90
21570;DHT22;57598;50.888;4.746;2022-11-09T14:27:45;16.20;99.90
21570;DHT22;57598;50.888;4.746;2022-11-09T14:30:17;16.10;99.90
21570;DHT22;57598;50.888;4.746;2022-11-09T14:32:48;15.90;99.90
21570;DHT22;57598;50.888;4.746;2022-11-09T14:35:21;15.90;99.90
21570;DHT22;57598;50.888;4.746;2022-11-09T14:37:48;15.90;99.90
21570;DHT22;57598;50.888;4.746;2022-11-09T14:40:22;15.80;99.90
21570;DHT22;57598;50.888;4.746;2022-11-09T14:42:51;15.50;99.90
21570;DHT22;57598;50.888;4.746;2022-11-09T14:45:21;15.30;99.90
21570;DHT22;57598;50.888;4.746;2022-11-09T14:47:51;15.20;99.90
21570;DHT22;57598;50.888;4.746;2022-11-09T14:50:21;15.10;99.90
21570;DHT22;57598;50.888;4.746;2022-11-09T14:52:51;15.10;99.90
21570;DHT22;57598;50.888;4.746;2022-11-09T14:55:19;15.10;99.90
21570;DHT22;57598;50.888;4.746;2022-11-09T14:57:48;14.90;99.90
21570;DHT22;57598;50.888;4.746;2022-11-09T15:00:32;14.70;99.90
21570;DHT22;57598;50.888;4.746;2022-11-09T15:03:23;14.60;99.90
21570;DHT22;57598;50.888;4.746;2022-11-09T15:06:02;14.60;99.90
21570;DHT22;57598;50.888;4.746;2022-11-09T15:08:30;15.00;99.90
21570;DHT22;57598;50.888;4.746;2022-11-09T15:10:57;15.30;99.90
21570;DHT22;57598;50.888;4.746;2022-11-09T15:13:30;15.60;99.90
21570;DHT22;57598;50.888;4.746;2022-11-09T15:15:59;15.90;99.90
21570;DHT22;57598;50.888;4.746;2022-11-09T15:18:28;16.00;99.90
21570;DHT22;57598;50.888;4.746;2022-11-09T15:21:14;15.90;99.90
21570;DHT22;57598;50.888;4.746;2022-11-09T15:23:41;15.60;99.90
21570;DHT22;57598;50.888;4.746;2022-11-09T15:26:28;15.40;99.90
21570;DHT22;57598;50.888;4.746;2022-11-09T15:28:59;15.00;99.90
21570;DHT22;57598;50.888;4.746;2022-11-09T15:31:28;14.90;99.90
21570;DHT22;57598;50.888;4.746;2022-11-09T15:33:56;14.80;99.90
21570;DHT22;57598;50.888;4.746;2022-11-09T15:36:29;14.80;99.90
21570;DHT22;57598;50.888;4.746;2022-11-09T15:39:05;14.50;99.90
21570;DHT22;57598;50.888;4.746;2022-11-09T15:41:34;14.50;99.90
21570;DHT22;57598;50.888;4.746;2022-11-09T15:44:02;14.30;99.90
21570;DHT22;57598;50.888;4.746;2022-11-09T15:46:34;14.20;99.90
21570;DHT22;57598;50.888;4.746;2022-11-09T15:49:15;14.10;99.90
21570;DHT22;57598;50.888;4.746;2022-11-09T15:51:42;14.00;99.90
21570;DHT22;57598;50.888;4.746;2022-11-09T15:54:09;13.90;99.90
21570;DHT22;57598;50.888;4.746;2022-11-09T15:56:36;13.80;99.90
21570;DHT22;57598;50.888;4.746;2022-11-09T15:59:03;13.70;99.90